createdAt,value
2018-11-10T00:01:25.736Z,66.36
2018-11-10T00:06:19.285Z,65.52
2018-11-10T00:11:12.783Z,65.56
2018-11-10T00:16:06.279Z,65.87
2018-11-10T00:20:59.547Z,65.85
2018-11-10T00:25:53.003Z,66.08
2018-11-10T00:30:46.982Z,67.48
2018-11-10T00:35:40.540Z,67.15
2018-11-10T00:40:34.015Z,67.08
2018-11-10T00:45:27.495Z,67.61
2018-11-10T00:50:21.038Z,69.12
2018-11-10T00:55:14.609Z,69.36
2018-11-10T01:00:09.925Z,70.12
2018-11-10T01:05:03.707Z,70.52
2018-11-10T01:09:57.624Z,71.66
2018-11-10T01:14:51.260Z,72.20
2018-11-10T01:19:45.216Z,72.63
2018-11-10T01:24:39.373Z,73.14
2018-11-10T01:29:33.412Z,74.39
2018-11-10T01:34:27.000Z,74.68
2018-11-10T01:39:21.601Z,75.01
2018-11-10T01:44:15.284Z,75.23
2018-11-10T01:49:08.780Z,75.18
2018-11-10T01:54:02.408Z,76.02
2018-11-10T01:58:56.561Z,74.97
2018-11-10T02:03:50.488Z,74.51
2018-11-10T02:08:44.133Z,75.00
2018-11-10T02:13:37.624Z,75.61
2018-11-10T02:18:31.297Z,76.42
2018-11-10T02:23:25.028Z,77.26
2018-11-10T02:28:18.650Z,77.19
2018-11-10T02:33:12.144Z,76.93
2018-11-10T02:38:05.603Z,76.74
2018-11-10T02:42:59.104Z,77.11
2018-11-10T02:47:52.534Z,76.95
2018-11-10T02:52:46.642Z,76.83
2018-11-10T02:57:40.679Z,76.68
2018-11-10T03:02:34.186Z,76.78
2018-11-10T03:07:27.587Z,77.43
2018-11-10T03:12:21.207Z,78.03
2018-11-10T03:17:15.268Z,77.90
2018-11-10T03:22:08.727Z,78.46
2018-11-10T03:27:02.248Z,79.36
2018-11-10T03:31:56.166Z,78.93
2018-11-10T03:36:49.762Z,79.56
2018-11-10T03:41:43.129Z,78.92
2018-11-10T03:46:36.546Z,79.34
2018-11-10T03:51:29.997Z,79.88
2018-11-10T03:56:23.491Z,79.19
2018-11-10T04:01:17.104Z,79.91
2018-11-10T04:06:10.410Z,80.51
2018-11-10T04:11:05.297Z,82.15
2018-11-10T04:15:58.870Z,81.52
2018-11-10T04:20:52.738Z,81.29
2018-11-10T04:25:46.155Z,82.06
2018-11-10T04:30:40.121Z,83.21
2018-11-10T04:35:33.666Z,83.96
2018-11-10T04:40:27.187Z,81.73
2018-11-10T04:45:20.546Z,80.65
2018-11-10T04:50:14.386Z,80.02
2018-11-10T04:55:08.768Z,80.02
2018-11-10T05:00:02.276Z,79.25
2018-11-10T05:04:55.807Z,79.53
2018-11-10T05:09:49.344Z,79.49
2018-11-10T05:14:42.782Z,78.86
2018-11-10T05:19:36.260Z,79.09
2018-11-10T05:24:29.892Z,79.52
2018-11-10T05:29:23.426Z,80.05
2018-11-10T05:34:16.909Z,79.83
2018-11-10T05:39:10.797Z,79.32
2018-11-10T05:44:04.377Z,78.75
2018-11-10T05:48:58.288Z,79.07
2018-11-10T05:53:52.623Z,78.47
2018-11-10T05:58:45.994Z,78.33
2018-11-10T06:03:39.460Z,78.50
2018-11-10T06:08:32.961Z,77.98
2018-11-10T06:13:26.438Z,77.92
2018-11-10T06:18:19.975Z,76.36
2018-11-10T06:23:14.299Z,76.33
2018-11-10T06:28:07.721Z,76.37
2018-11-10T06:33:01.639Z,75.30
2018-11-10T06:37:55.063Z,75.29
2018-11-10T06:42:49.360Z,77.09
2018-11-10T06:47:43.002Z,77.31
2018-11-10T06:52:36.601Z,77.61
2018-11-10T06:57:30.092Z,77.95
2018-11-10T07:02:23.667Z,78.28
2018-11-10T07:07:17.235Z,77.21
2018-11-10T07:12:10.769Z,77.39
2018-11-10T07:17:04.270Z,77.09
2018-11-10T07:21:57.715Z,76.47
2018-11-10T07:26:51.279Z,76.17
2018-11-10T07:31:44.846Z,75.97
2018-11-10T07:36:38.394Z,76.76
2018-11-10T07:41:31.945Z,76.39
2018-11-10T07:46:25.427Z,75.60
2018-11-10T07:51:19.049Z,75.22
2018-11-10T07:56:12.681Z,76.02
2018-11-10T08:01:06.594Z,76.58
2018-11-10T08:06:00.262Z,76.33
2018-11-10T08:10:53.838Z,75.09
2018-11-10T08:15:47.335Z,75.58
2018-11-10T08:20:40.775Z,75.51
2018-11-10T08:25:34.368Z,75.52
2018-11-10T08:30:27.766Z,75.16
2018-11-10T08:35:21.321Z,74.69
2018-11-10T08:40:16.423Z,75.04
2018-11-10T08:45:11.423Z,74.55
2018-11-10T08:50:05.873Z,74.38
2018-11-10T08:54:59.401Z,74.16
2018-11-10T08:59:54.174Z,73.70
2018-11-10T09:04:47.781Z,73.03
2018-11-10T09:09:41.348Z,73.77
2018-11-10T09:14:34.859Z,72.71
2018-11-10T09:19:28.460Z,70.33
2018-11-10T09:24:22.300Z,70.85
2018-11-10T09:29:16.007Z,71.60
2018-11-10T09:34:09.410Z,71.89
2018-11-10T09:39:03.465Z,72.26
2018-11-10T09:43:56.995Z,71.32
2018-11-10T09:48:50.525Z,71.25
2018-11-10T09:53:44.088Z,67.59
2018-11-10T09:58:37.482Z,65.75
2018-11-10T10:03:31.285Z,64.38
2018-11-10T10:08:24.805Z,64.46
2018-11-10T10:13:18.135Z,64.89
2018-11-10T10:18:11.942Z,65.10
2018-11-10T10:23:05.982Z,66.54
2018-11-10T10:27:59.496Z,66.17
2018-11-10T10:32:53.035Z,66.77
2018-11-10T10:37:47.633Z,65.61
2018-11-10T10:42:41.123Z,64.67
2018-11-10T10:47:34.596Z,64.65
2018-11-10T10:52:28.219Z,66.64
2018-11-10T10:57:21.762Z,67.03
2018-11-10T11:02:20.670Z,66.41
2018-11-10T11:07:14.164Z,65.78
2018-11-10T11:12:07.757Z,65.95
2018-11-10T11:17:01.216Z,66.33
2018-11-10T11:21:54.917Z,68.01
2018-11-10T11:26:48.413Z,67.61
2018-11-10T11:31:42.195Z,66.16
2018-11-10T11:36:35.804Z,65.49
2018-11-10T11:41:29.928Z,64.75
2018-11-10T11:46:23.354Z,65.04
2018-11-10T11:51:18.412Z,66.69
2018-11-10T11:56:12.365Z,65.94
2018-11-10T12:01:06.008Z,64.66
2018-11-10T12:05:59.507Z,63.79
2018-11-10T12:10:52.895Z,62.57
2018-11-10T12:15:46.463Z,62.62
2018-11-10T12:20:40.039Z,62.07
2018-11-10T12:25:33.613Z,61.76
2018-11-10T12:30:27.306Z,59.29
2018-11-10T12:35:20.842Z,55.32
2018-11-10T12:40:14.617Z,55.71
2018-11-10T12:45:09.610Z,55.73
2018-11-10T12:50:03.184Z,55.54
2018-11-10T12:54:56.859Z,55.31
2018-11-10T12:59:50.262Z,57.48
2018-11-10T13:04:43.820Z,56.61
2018-11-10T13:09:37.343Z,56.27
2018-11-10T13:14:30.878Z,56.69
2018-11-10T13:19:24.235Z,57.80
2018-11-10T13:24:17.794Z,57.88
2018-11-10T13:29:11.275Z,57.40
2018-11-10T13:34:05.095Z,57.92
2018-11-10T13:38:58.495Z,56.99
2018-11-10T13:43:52.166Z,56.64
2018-11-10T13:48:45.774Z,56.89
2018-11-10T13:53:39.251Z,56.76
2018-11-10T13:58:32.786Z,57.48
2018-11-10T14:03:26.287Z,56.25
2018-11-10T14:08:19.648Z,56.80
2018-11-10T14:13:13.124Z,57.59
2018-11-10T14:18:06.788Z,57.45
2018-11-10T14:23:00.409Z,59.85
2018-11-10T14:27:54.318Z,62.34
2018-11-10T14:32:47.975Z,59.94
2018-11-10T14:37:41.536Z,61.98
2018-11-10T14:42:34.946Z,62.60
2018-11-10T14:47:28.413Z,62.98
2018-11-10T14:52:22.027Z,64.42
2018-11-10T14:57:15.591Z,65.15
2018-11-10T15:02:09.182Z,64.66
2018-11-10T15:07:02.661Z,65.83
2018-11-10T15:11:56.170Z,66.61
2018-11-10T15:16:49.624Z,67.37
2018-11-10T15:21:43.028Z,68.10
2018-11-10T15:26:36.837Z,68.36
2018-11-10T15:31:30.419Z,69.35
2018-11-10T15:36:23.972Z,69.86
2018-11-10T15:41:17.327Z,69.96
2018-11-10T15:46:10.972Z,69.91
2018-11-10T15:51:04.741Z,69.81
2018-11-10T15:55:58.244Z,69.86
2018-11-10T16:00:51.793Z,70.37
2018-11-10T16:05:45.227Z,70.01
2018-11-10T16:10:40.039Z,70.58
2018-11-10T16:15:33.844Z,70.92
2018-11-10T16:20:27.588Z,71.41
2018-11-10T16:25:21.758Z,71.83
2018-11-10T16:30:16.932Z,71.78
2018-11-10T16:35:10.504Z,72.53
2018-11-10T16:40:05.723Z,72.13
2018-11-10T16:44:59.295Z,72.50
2018-11-10T16:49:52.724Z,72.41
2018-11-10T16:54:46.526Z,72.68
2018-11-10T16:59:40.097Z,73.92
2018-11-10T17:04:33.596Z,73.02
2018-11-10T17:09:27.169Z,72.91
2018-11-10T17:14:20.683Z,72.65
2018-11-10T17:19:14.694Z,72.49
2018-11-10T17:24:08.756Z,72.95
2018-11-10T17:29:02.494Z,72.85
2018-11-10T17:33:56.528Z,72.09
2018-11-10T17:38:49.967Z,72.61
2018-11-10T17:43:43.662Z,72.95
2018-11-10T17:48:37.469Z,73.38
2018-11-10T17:53:31.043Z,72.98
2018-11-10T17:58:24.785Z,73.67
2018-11-10T18:03:18.267Z,73.94
2018-11-10T18:08:11.864Z,74.33
2018-11-10T18:13:05.480Z,75.17
2018-11-10T18:17:59.115Z,74.62
2018-11-10T18:22:52.660Z,75.29
2018-11-10T18:27:46.224Z,74.63
2018-11-10T18:32:39.763Z,74.60
2018-11-10T18:37:33.319Z,74.96
2018-11-10T18:42:27.250Z,75.19
2018-11-10T18:47:20.658Z,75.01
2018-11-10T18:52:15.665Z,75.16
2018-11-10T18:57:09.250Z,75.41
2018-11-10T19:02:02.667Z,75.86
2018-11-10T19:06:56.147Z,76.15
2018-11-10T19:11:49.646Z,76.11
2018-11-10T19:16:43.016Z,76.43
2018-11-10T19:21:36.461Z,76.22
2018-11-10T19:26:30.317Z,75.87
2018-11-10T19:31:23.746Z,77.11
2018-11-10T19:36:17.530Z,77.89
2018-11-10T19:41:11.137Z,77.55
2018-11-10T19:46:04.996Z,78.24
2018-11-10T19:50:58.731Z,78.84
2018-11-10T19:55:52.470Z,79.06
2018-11-10T20:00:46.316Z,79.46
2018-11-10T20:05:39.916Z,79.27
2018-11-10T20:10:33.528Z,79.86
2018-11-10T20:15:27.028Z,80.55
2018-11-10T20:20:20.395Z,81.15
2018-11-10T20:25:15.165Z,81.64
2018-11-10T20:30:12.650Z,81.51
2018-11-10T20:35:07.240Z,82.68
2018-11-10T20:40:00.886Z,83.45
2018-11-10T20:44:54.504Z,83.57
2018-11-10T20:49:47.908Z,84.31
2018-11-10T20:54:41.406Z,84.96
2018-11-10T20:59:34.929Z,85.41
2018-11-10T21:04:28.407Z,86.27
2018-11-10T21:09:21.925Z,86.57
2018-11-10T21:14:15.438Z,86.69
2018-11-10T21:19:08.875Z,86.92
2018-11-10T21:24:02.413Z,87.47
2018-11-10T21:28:55.999Z,87.37
2018-11-10T21:33:49.490Z,87.10
2018-11-10T21:38:42.933Z,86.96
2018-11-10T21:43:36.859Z,86.75
2018-11-10T21:48:30.458Z,86.54
2018-11-10T21:53:23.866Z,86.07
2018-11-10T21:58:17.254Z,85.19
2018-11-10T22:03:10.733Z,84.93
2018-11-10T22:08:04.266Z,83.89
2018-11-10T22:12:57.801Z,84.25
2018-11-10T22:17:51.411Z,84.71
2018-11-10T22:22:44.971Z,84.10
2018-11-10T22:27:41.102Z,84.79
2018-11-10T22:32:34.582Z,84.51
2018-11-10T22:37:28.053Z,83.73
2018-11-10T22:42:21.478Z,84.12
2018-11-10T22:47:14.918Z,84.38
2018-11-10T22:52:08.344Z,84.89
2018-11-10T22:57:01.901Z,84.18
2018-11-10T23:01:55.340Z,83.53
2018-11-10T23:06:48.821Z,83.74
2018-11-10T23:11:42.275Z,83.38
2018-11-10T23:16:35.590Z,82.88
2018-11-10T23:21:29.037Z,82.79
2018-11-10T23:26:22.520Z,83.17
2018-11-10T23:31:15.892Z,82.90
2018-11-10T23:36:09.439Z,82.97
2018-11-10T23:41:03.815Z,83.08
2018-11-10T23:45:57.205Z,83.83
2018-11-10T23:50:50.650Z,83.41
2018-11-10T23:55:44.157Z,83.25
